createdAt,value
2019-05-17T00:04:03.167Z,61.95
2019-05-17T00:09:08.922Z,64.88
2019-05-17T00:14:16.624Z,66.34
2019-05-17T00:19:21.089Z,65.47
2019-05-17T00:24:26.650Z,64.50
2019-05-17T00:29:32.105Z,65.43
2019-05-17T00:34:37.847Z,66.48
2019-05-17T00:39:43.235Z,68.33
2019-05-17T00:44:48.286Z,70.03
2019-05-17T00:49:53.598Z,72.71
2019-05-17T00:54:58.711Z,73.46
2019-05-17T01:00:04.293Z,73.36
2019-05-17T01:05:09.834Z,71.76
2019-05-17T01:10:16.621Z,69.63
2019-05-17T01:20:39.896Z,68.99
2019-05-17T01:25:45.264Z,69.49
2019-05-17T01:30:50.598Z,70.17
2019-05-17T01:35:57.338Z,70.66
2019-05-17T01:41:02.856Z,71.02
2019-05-17T01:46:08.140Z,70.83
2019-05-17T01:51:13.546Z,70.43
2019-05-17T01:56:18.819Z,70.42
2019-05-17T02:01:24.030Z,70.14
2019-05-17T02:06:29.338Z,69.86
2019-05-17T02:11:46.706Z,69.45
2019-05-17T02:16:52.019Z,69.79
2019-05-17T02:21:57.234Z,70.29
2019-05-17T02:27:02.559Z,71.11
2019-05-17T02:32:07.936Z,71.69
2019-05-17T02:37:13.729Z,72.02
2019-05-17T02:42:22.299Z,71.86
2019-05-17T02:47:26.120Z,73.53
2019-05-17T02:52:33.041Z,74.22
2019-05-17T02:57:38.466Z,74.41
2019-05-17T03:02:44.090Z,74.17
2019-05-17T03:07:52.597Z,73.64
2019-05-17T03:12:56.439Z,73.21
2019-05-17T03:18:03.689Z,73.25
2019-05-17T03:23:08.499Z,73.38
2019-05-17T03:28:13.685Z,73.56
2019-05-17T03:33:19.222Z,74.73
2019-05-17T03:38:24.579Z,75.77
2019-05-17T03:43:29.900Z,75.82
2019-05-17T03:48:35.130Z,75.42
2019-05-17T03:53:43.877Z,75.27
2019-05-17T03:58:53.054Z,74.39
2019-05-17T04:03:58.511Z,74.42
2019-05-17T04:09:05.544Z,75.20
2019-05-17T04:14:13.967Z,75.89
2019-05-17T04:19:17.722Z,76.04
2019-05-17T04:24:23.337Z,75.99
2019-05-17T04:29:28.828Z,75.77
2019-05-17T04:34:34.141Z,75.73
2019-05-17T04:39:39.356Z,75.26
2019-05-17T04:44:44.493Z,75.02
2019-05-17T04:49:53.300Z,75.48
2019-05-17T04:54:56.713Z,76.31
2019-05-17T05:00:04.165Z,77.47
2019-05-17T05:05:09.053Z,78.48
2019-05-17T05:10:14.868Z,79.23
2019-05-17T05:15:25.813Z,79.64
2019-05-17T05:20:32.548Z,79.90
2019-05-17T05:25:37.963Z,79.99
2019-05-17T05:30:43.146Z,79.83
2019-05-17T05:35:48.406Z,79.57
2019-05-17T05:40:53.839Z,79.21
2019-05-17T05:45:59.113Z,78.78
2019-05-17T05:51:05.231Z,78.65
2019-05-17T05:56:13.383Z,78.84
2019-05-17T06:01:18.940Z,79.14
2019-05-17T06:06:24.177Z,79.22
2019-05-17T06:11:32.070Z,79.13
2019-05-17T06:16:36.682Z,79.46
2019-05-17T06:21:42.696Z,80.38
2019-05-17T06:26:48.119Z,80.38
2019-05-17T06:31:53.759Z,80.68
2019-05-17T06:36:59.055Z,81.25
2019-05-17T06:42:04.500Z,81.44
2019-05-17T06:47:11.943Z,81.76
2019-05-17T06:52:16.665Z,81.81
2019-05-17T06:57:23.309Z,81.15
2019-05-17T07:02:30.886Z,80.17
2019-05-17T07:07:36.071Z,79.71
2019-05-17T07:12:54.858Z,78.58
2019-05-17T07:17:50.427Z,77.21
2019-05-17T07:22:55.557Z,76.08
2019-05-17T07:28:00.855Z,72.53
2019-05-17T07:33:06.261Z,68.46
2019-05-17T07:38:11.491Z,63.39
2019-05-17T07:43:16.855Z,62.56
2019-05-17T07:48:22.151Z,62.91
2019-05-17T07:53:27.527Z,64.78
2019-05-17T07:58:33.014Z,65.85
2019-05-17T08:03:40.363Z,66.02
2019-05-17T08:08:45.222Z,68.45
2019-05-17T08:13:50.672Z,71.09
2019-05-17T08:18:55.922Z,70.48
2019-05-17T08:24:01.286Z,67.35
2019-05-17T08:29:06.492Z,67.07
2019-05-17T08:34:11.816Z,65.27
2019-05-17T08:39:19.477Z,61.98
2019-05-17T08:44:24.230Z,58.67
2019-05-17T08:49:29.664Z,57.27
2019-05-17T08:54:34.781Z,58.77
2019-05-17T08:59:40.633Z,59.95
2019-05-17T09:04:45.989Z,59.86
2019-05-17T09:09:51.292Z,56.90
2019-05-17T09:14:56.441Z,56.08
2019-05-17T09:20:01.762Z,57.89
2019-05-17T09:25:07.263Z,57.42
2019-05-17T09:30:16.527Z,59.90
2019-05-17T09:35:21.766Z,56.46
2019-05-17T09:40:29.238Z,59.08
2019-05-17T09:45:34.402Z,57.06
2019-05-17T09:50:40.114Z,55.46
2019-05-17T09:55:45.591Z,54.80
2019-05-17T10:00:51.742Z,56.51
2019-05-17T10:05:57.322Z,56.43
2019-05-17T10:11:08.396Z,58.62
2019-05-17T10:16:10.792Z,60.12
2019-05-17T10:21:25.860Z,59.75
2019-05-17T10:26:31.247Z,60.18
2019-05-17T10:31:36.495Z,59.83
2019-05-17T10:36:41.712Z,58.92
2019-05-17T10:41:46.934Z,58.86
2019-05-17T10:46:52.647Z,59.85
2019-05-17T10:51:59.876Z,61.36
2019-05-17T10:57:04.956Z,62.15
2019-05-17T11:02:10.555Z,62.25
2019-05-17T11:07:15.930Z,61.47
2019-05-17T11:12:21.423Z,60.93
2019-05-17T11:17:26.671Z,60.84
2019-05-17T11:22:31.851Z,60.53
2019-05-17T11:27:50.465Z,59.00
2019-05-17T11:32:55.762Z,61.05
2019-05-17T11:38:01.091Z,61.71
2019-05-17T11:43:06.302Z,63.20
2019-05-17T11:48:11.586Z,58.92
2019-05-17T11:53:17.143Z,58.45
2019-05-17T11:58:22.490Z,58.18
2019-05-17T12:03:28.143Z,59.76
2019-05-17T12:08:41.822Z,61.01
2019-05-17T12:13:47.395Z,61.85
2019-05-17T12:18:52.791Z,62.53
2019-05-17T12:23:58.166Z,62.45
2019-05-17T12:29:03.416Z,63.96
2019-05-17T12:34:08.590Z,64.04
2019-05-17T12:39:13.979Z,63.31
2019-05-17T12:44:19.346Z,62.55
2019-05-17T12:49:24.677Z,62.05
2019-05-17T12:54:29.923Z,60.31
2019-05-17T12:59:35.272Z,58.51
2019-05-17T13:04:40.727Z,59.54
2019-05-17T13:09:46.487Z,62.06
2019-05-17T13:14:51.827Z,63.55
2019-05-17T13:19:57.211Z,62.98
2019-05-17T13:25:02.608Z,63.62
2019-05-17T13:30:08.107Z,60.56
2019-05-17T13:35:13.543Z,59.67
2019-05-17T13:40:18.915Z,61.48
2019-05-17T13:45:24.207Z,62.94
2019-05-17T13:50:29.516Z,63.81
2019-05-17T13:55:35.082Z,62.30
2019-05-17T14:00:40.300Z,60.91
2019-05-17T14:05:46.615Z,62.52
2019-05-17T14:10:51.833Z,61.31
2019-05-17T14:15:57.177Z,59.43
2019-05-17T14:21:02.479Z,61.49
2019-05-17T14:26:07.934Z,63.83
2019-05-17T14:31:13.276Z,65.90
2019-05-17T14:36:18.751Z,67.66
2019-05-17T14:41:24.090Z,67.33
2019-05-17T14:46:29.517Z,67.33
2019-05-17T14:51:34.721Z,66.60
2019-05-17T14:56:39.971Z,66.18
2019-05-17T15:01:45.507Z,65.63
2019-05-17T15:06:52.238Z,68.06
2019-05-17T15:11:57.477Z,68.17
2019-05-17T15:17:02.777Z,69.15
2019-05-17T15:22:08.000Z,70.07
2019-05-17T15:27:13.592Z,69.98
2019-05-17T15:32:19.033Z,71.01
2019-05-17T15:37:24.314Z,73.23
2019-05-17T15:42:43.264Z,74.61
2019-05-17T15:47:36.483Z,76.89
2019-05-17T15:52:41.761Z,77.08
2019-05-17T15:57:47.039Z,75.52
2019-05-17T16:02:52.411Z,75.52
2019-05-17T16:07:57.790Z,75.44
2019-05-17T16:13:03.748Z,75.27
2019-05-17T16:18:09.156Z,75.99
2019-05-17T16:23:14.432Z,77.66
2019-05-17T16:28:19.766Z,77.66
2019-05-17T16:33:25.002Z,78.48
2019-05-17T16:38:30.422Z,81.20
2019-05-17T16:43:35.748Z,81.20
2019-05-17T16:48:41.143Z,81.89
2019-05-17T16:53:46.770Z,82.68
2019-05-17T16:58:52.185Z,83.23
2019-05-17T17:03:57.657Z,83.76
2019-05-17T17:09:03.174Z,83.96
2019-05-17T17:14:08.421Z,84.20
2019-05-17T17:19:13.768Z,84.96
2019-05-17T17:24:19.155Z,85.33
2019-05-17T17:29:24.437Z,85.64
2019-05-17T17:34:29.872Z,85.67
2019-05-17T17:39:35.306Z,85.42
2019-05-17T17:44:40.760Z,85.40
2019-05-17T17:49:46.106Z,85.15
2019-05-17T17:54:51.890Z,85.17
2019-05-17T17:59:57.199Z,84.93
2019-05-17T18:05:02.594Z,85.10
2019-05-17T18:10:08.936Z,85.34
2019-05-17T18:15:14.331Z,85.60
2019-05-17T18:20:20.068Z,86.23
2019-05-17T18:25:25.356Z,86.64
2019-05-17T18:30:30.943Z,86.92
2019-05-17T18:35:37.284Z,87.20
2019-05-17T18:40:42.632Z,87.40
2019-05-17T18:45:48.475Z,87.70
2019-05-17T18:50:54.035Z,87.99
2019-05-17T18:55:59.491Z,88.31
2019-05-17T19:01:05.012Z,88.44
2019-05-17T19:06:10.239Z,88.81
2019-05-17T19:11:15.786Z,89.06
2019-05-17T19:16:21.304Z,89.17
2019-05-17T19:21:26.864Z,89.39
2019-05-17T19:26:32.292Z,89.53
2019-05-17T19:31:37.704Z,89.64
2019-05-17T19:36:42.998Z,89.63
2019-05-17T19:41:48.568Z,89.90
2019-05-17T19:46:53.973Z,89.99
2019-05-17T19:51:59.315Z,90.16
2019-05-17T19:57:04.751Z,90.25
2019-05-17T20:02:10.491Z,90.34
2019-05-17T20:07:15.899Z,90.42
2019-05-17T20:12:21.431Z,90.66
2019-05-17T20:17:26.712Z,90.69
2019-05-17T20:22:32.017Z,90.79
2019-05-17T20:27:37.439Z,90.89
2019-05-17T20:32:42.851Z,90.83
2019-05-17T20:37:48.180Z,91.10
2019-05-17T20:42:53.518Z,91.28
2019-05-17T20:47:58.918Z,91.36
2019-05-17T20:53:18.049Z,91.32
2019-05-17T20:58:11.611Z,91.51
2019-05-17T21:03:16.813Z,91.50
2019-05-17T21:08:22.243Z,91.63
2019-05-17T21:13:27.631Z,91.82
2019-05-17T21:18:32.971Z,92.04
2019-05-17T21:23:38.251Z,92.17
2019-05-17T21:28:46.658Z,92.17
2019-05-17T21:33:50.678Z,92.44
2019-05-17T21:38:56.010Z,92.60
2019-05-17T21:44:01.383Z,92.98
2019-05-17T21:49:06.951Z,93.29
2019-05-17T21:54:12.427Z,93.51
2019-05-17T21:59:17.923Z,93.69
2019-05-17T22:04:26.737Z,93.86
2019-05-17T22:09:30.434Z,94.14
2019-05-17T22:14:35.911Z,94.38
2019-05-17T22:19:41.344Z,94.56
2019-05-17T22:24:46.643Z,94.52
2019-05-17T22:29:52.067Z,94.66
2019-05-17T22:34:57.306Z,94.82
2019-05-17T22:40:02.744Z,95.08
2019-05-17T22:45:08.211Z,95.17
2019-05-17T22:50:13.799Z,95.35
2019-05-17T22:55:19.511Z,95.74
2019-05-17T23:00:25.101Z,95.89
2019-05-17T23:05:30.406Z,96.02
2019-05-17T23:10:35.723Z,96.02
2019-05-17T23:15:49.063Z,96.26
2019-05-17T23:20:54.332Z,96.24
2019-05-17T23:25:59.692Z,96.24
2019-05-17T23:31:05.077Z,96.15
2019-05-17T23:36:10.451Z,96.21
2019-05-17T23:41:15.719Z,96.40
2019-05-17T23:46:21.000Z,96.47
2019-05-17T23:51:26.243Z,96.38
2019-05-17T23:56:31.859Z,96.25
